sensor_id;sensor_type;location;lat;lon;timestamp;temperature;humidity
1704;DHT22;849;48.780;9.216;2023-05-10T00:00:12;17.00;99.90
1704;DHT22;849;48.780;9.216;2023-05-10T00:02:38;16.90;99.90
1704;DHT22;849;48.780;9.216;2023-05-10T00:05:04;17.20;99.90
1704;DHT22;849;48.780;9.216;2023-05-10T00:07:30;17.30;99.90
1704;DHT22;849;48.780;9.216;2023-05-10T00:09:56;17.40;99.90
1704;DHT22;849;48.780;9.216;2023-05-10T00:12:21;17.30;99.90
1704;DHT22;849;48.780;9.216;2023-05-10T00:14:47;17.30;99.90
1704;DHT22;849;48.780;9.216;2023-05-10T00:17:13;17.30;99.90
1704;DHT22;849;48.780;9.216;2023-05-10T00:19:39;17.30;99.90
1704;DHT22;849;48.780;9.216;2023-05-10T00:22:05;17.40;99.90
1704;DHT22;849;48.780;9.216;2023-05-10T00:24:30;17.10;99.90
1704;DHT22;849;48.780;9.216;2023-05-10T00:26:56;16.70;99.90
1704;DHT22;849;48.780;9.216;2023-05-10T00:29:21;16.50;99.90
1704;DHT22;849;48.780;9.216;2023-05-10T00:31:47;16.80;99.90
1704;DHT22;849;48.780;9.216;2023-05-10T00:34:13;16.90;99.90
1704;DHT22;849;48.780;9.216;2023-05-10T00:36:38;16.80;99.90
1704;DHT22;849;48.780;9.216;2023-05-10T00:39:04;16.90;99.90
1704;DHT22;849;48.780;9.216;2023-05-10T00:41:30;17.10;99.90
1704;DHT22;849;48.780;9.216;2023-05-10T00:43:58;17.30;99.90
1704;DHT22;849;48.780;9.216;2023-05-10T00:46:24;17.00;99.90
1704;DHT22;849;48.780;9.216;2023-05-10T00:48:50;16.80;99.90
1704;DHT22;849;48.780;9.216;2023-05-10T00:51:16;16.90;99.90
1704;DHT22;849;48.780;9.216;2023-05-10T00:53:41;17.00;99.90
1704;DHT22;849;48.780;9.216;2023-05-10T00:56:08;17.20;99.90
1704;DHT22;849;48.780;9.216;2023-05-10T00:58:33;17.30;99.90
1704;DHT22;849;48.780;9.216;2023-05-10T01:01:00;17.10;99.90
1704;DHT22;849;48.780;9.216;2023-05-10T01:03:26;16.80;99.90
1704;DHT22;849;48.780;9.216;2023-05-10T01:05:53;16.80;99.90
1704;DHT22;849;48.780;9.216;2023-05-10T01:08:18;16.90;99.90
1704;DHT22;849;48.780;9.216;2023-05-10T01:10:45;16.80;99.90
1704;DHT22;849;48.780;9.216;2023-05-10T01:13:11;16.80;99.90
1704;DHT22;849;48.780;9.216;2023-05-10T01:15:38;16.50;99.90
1704;DHT22;849;48.780;9.216;2023-05-10T01:18:04;16.50;99.90
1704;DHT22;849;48.780;9.216;2023-05-10T01:20:37;16.60;99.90
1704;DHT22;849;48.780;9.216;2023-05-10T01:26:07;16.40;99.90
1704;DHT22;849;48.780;9.216;2023-05-10T01:29:11;16.30;99.90
1704;DHT22;849;48.780;9.216;2023-05-10T01:34:57;16.60;99.90
1704;DHT22;849;48.780;9.216;2023-05-10T01:40:35;17.00;99.90
1704;DHT22;849;48.780;9.216;2023-05-10T01:43:04;17.10;99.90
1704;DHT22;849;48.780;9.216;2023-05-10T01:45:44;17.10;99.90
1704;DHT22;849;48.780;9.216;2023-05-10T01:48:14;16.80;99.90
1704;DHT22;849;48.780;9.216;2023-05-10T01:50:43;16.70;99.90
1704;DHT22;849;48.780;9.216;2023-05-10T01:53:11;16.80;99.90
1704;DHT22;849;48.780;9.216;2023-05-10T01:55:47;16.80;99.90
1704;DHT22;849;48.780;9.216;2023-05-10T01:58:17;16.90;99.90
1704;DHT22;849;48.780;9.216;2023-05-10T02:00:46;16.80;99.90
1704;DHT22;849;48.780;9.216;2023-05-10T02:03:14;16.90;99.90
1704;DHT22;849;48.780;9.216;2023-05-10T02:05:41;16.90;99.90
1704;DHT22;849;48.780;9.216;2023-05-10T02:08:10;17.00;99.90
1704;DHT22;849;48.780;9.216;2023-05-10T02:10:37;17.10;99.90
1704;DHT22;849;48.780;9.216;2023-05-10T02:13:05;17.20;99.90
1704;DHT22;849;48.780;9.216;2023-05-10T02:15:33;17.20;99.90
1704;DHT22;849;48.780;9.216;2023-05-10T02:18:00;17.20;99.90
1704;DHT22;849;48.780;9.216;2023-05-10T02:20:28;17.20;99.90
1704;DHT22;849;48.780;9.216;2023-05-10T02:22:55;17.20;99.90
1704;DHT22;849;48.780;9.216;2023-05-10T02:25:23;17.10;99.90
1704;DHT22;849;48.780;9.216;2023-05-10T02:27:53;17.20;99.90
1704;DHT22;849;48.780;9.216;2023-05-10T02:30:20;17.20;99.90
1704;DHT22;849;48.780;9.216;2023-05-10T02:32:47;17.10;99.90
1704;DHT22;849;48.780;9.216;2023-05-10T02:35:14;17.10;99.90
1704;DHT22;849;48.780;9.216;2023-05-10T02:37:41;17.10;99.90
1704;DHT22;849;48.780;9.216;2023-05-10T02:40:08;17.10;99.90
1704;DHT22;849;48.780;9.216;2023-05-10T02:42:36;17.10;99.90
1704;DHT22;849;48.780;9.216;2023-05-10T02:45:07;17.10;99.90
1704;DHT22;849;48.780;9.216;2023-05-10T02:47:33;17.20;99.90
1704;DHT22;849;48.780;9.216;2023-05-10T02:49:58;17.10;99.90
1704;DHT22;849;48.780;9.216;2023-05-10T02:52:28;17.20;99.90
1704;DHT22;849;48.780;9.216;2023-05-10T02:54:55;17.20;99.90
1704;DHT22;849;48.780;9.216;2023-05-10T02:57:27;17.20;99.90
1704;DHT22;849;48.780;9.216;2023-05-10T02:59:54;17.10;99.90
1704;DHT22;849;48.780;9.216;2023-05-10T03:02:20;17.20;99.90
1704;DHT22;849;48.780;9.216;2023-05-10T03:04:46;17.20;99.90
1704;DHT22;849;48.780;9.216;2023-05-10T03:07:13;17.20;99.90
1704;DHT22;849;48.780;9.216;2023-05-10T03:09:39;17.20;99.90
1704;DHT22;849;48.780;9.216;2023-05-10T03:12:15;17.10;99.90
1704;DHT22;849;48.780;9.216;2023-05-10T03:15:10;17.20;99.90
1704;DHT22;849;48.780;9.216;2023-05-10T03:17:56;17.10;99.90
1704;DHT22;849;48.780;9.216;2023-05-10T03:20:47;17.10;99.90
1704;DHT22;849;48.780;9.216;2023-05-10T03:25:58;17.20;99.90
1704;DHT22;849;48.780;9.216;2023-05-10T03:28:25;17.20;99.90
1704;DHT22;849;48.780;9.216;2023-05-10T03:30:53;17.10;99.90
1704;DHT22;849;48.780;9.216;2023-05-10T03:33:20;17.10;99.90
1704;DHT22;849;48.780;9.216;2023-05-10T03:35:46;17.10;99.90
1704;DHT22;849;48.780;9.216;2023-05-10T03:38:12;17.10;99.90
1704;DHT22;849;48.780;9.216;2023-05-10T03:40:38;17.10;99.90
1704;DHT22;849;48.780;9.216;2023-05-10T03:43:04;17.00;99.90
1704;DHT22;849;48.780;9.216;2023-05-10T03:45:29;17.00;99.90
1704;DHT22;849;48.780;9.216;2023-05-10T03:47:57;17.00;99.90
1704;DHT22;849;48.780;9.216;2023-05-10T03:50:22;17.00;99.90
1704;DHT22;849;48.780;9.216;2023-05-10T03:52:48;17.00;99.90
1704;DHT22;849;48.780;9.216;2023-05-10T03:55:14;16.90;99.90
1704;DHT22;849;48.780;9.216;2023-05-10T03:57:40;17.00;99.90
1704;DHT22;849;48.780;9.216;2023-05-10T04:00:06;17.00;99.90
1704;DHT22;849;48.780;9.216;2023-05-10T04:02:32;17.00;99.90
1704;DHT22;849;48.780;9.216;2023-05-10T04:04:58;17.00;99.90
1704;DHT22;849;48.780;9.216;2023-05-10T04:07:23;17.00;99.90
1704;DHT22;849;48.780;9.216;2023-05-10T04:09:49;17.10;99.90
1704;DHT22;849;48.780;9.216;2023-05-10T04:12:15;17.00;99.90
1704;DHT22;849;48.780;9.216;2023-05-10T04:14:41;16.90;99.90
1704;DHT22;849;48.780;9.216;2023-05-10T04:17:06;16.80;99.90
1704;DHT22;849;48.780;9.216;2023-05-10T04:19:32;16.90;99.90
1704;DHT22;849;48.780;9.216;2023-05-10T04:21:58;16.80;99.90
1704;DHT22;849;48.780;9.216;2023-05-10T04:24:25;16.80;99.90
1704;DHT22;849;48.780;9.216;2023-05-10T04:26:51;16.80;99.90
1704;DHT22;849;48.780;9.216;2023-05-10T04:29:16;16.80;99.90
1704;DHT22;849;48.780;9.216;2023-05-10T04:31:42;16.70;99.90
1704;DHT22;849;48.780;9.216;2023-05-10T04:34:08;16.70;99.90
1704;DHT22;849;48.780;9.216;2023-05-10T04:36:33;16.80;99.90
1704;DHT22;849;48.780;9.216;2023-05-10T04:39:02;16.90;99.90
1704;DHT22;849;48.780;9.216;2023-05-10T04:41:30;16.70;99.90
1704;DHT22;849;48.780;9.216;2023-05-10T04:43:56;16.80;99.90
1704;DHT22;849;48.780;9.216;2023-05-10T04:46:22;16.80;99.90
1704;DHT22;849;48.780;9.216;2023-05-10T04:48:47;16.90;99.90
1704;DHT22;849;48.780;9.216;2023-05-10T04:51:13;16.70;99.90
1704;DHT22;849;48.780;9.216;2023-05-10T04:53:39;16.50;99.90
1704;DHT22;849;48.780;9.216;2023-05-10T04:56:05;16.40;99.90
1704;DHT22;849;48.780;9.216;2023-05-10T04:58:30;16.40;99.90
1704;DHT22;849;48.780;9.216;2023-05-10T05:00:56;16.40;99.90
1704;DHT22;849;48.780;9.216;2023-05-10T05:03:22;16.50;99.90
1704;DHT22;849;48.780;9.216;2023-05-10T05:05:48;16.60;99.90
1704;DHT22;849;48.780;9.216;2023-05-10T05:08:13;16.70;99.90
1704;DHT22;849;48.780;9.216;2023-05-10T05:10:39;16.70;99.90
1704;DHT22;849;48.780;9.216;2023-05-10T05:13:05;16.50;99.90
1704;DHT22;849;48.780;9.216;2023-05-10T05:15:31;16.70;99.90
1704;DHT22;849;48.780;9.216;2023-05-10T05:17:56;16.60;99.90
1704;DHT22;849;48.780;9.216;2023-05-10T05:20:22;16.80;99.90
1704;DHT22;849;48.780;9.216;2023-05-10T05:22:48;16.90;99.90
1704;DHT22;849;48.780;9.216;2023-05-10T05:25:13;17.00;99.90
1704;DHT22;849;48.780;9.216;2023-05-10T05:27:40;17.10;99.90
1704;DHT22;849;48.780;9.216;2023-05-10T05:30:06;17.20;99.90
1704;DHT22;849;48.780;9.216;2023-05-10T05:32:32;17.40;99.90
1704;DHT22;849;48.780;9.216;2023-05-10T05:34:57;17.30;99.90
1704;DHT22;849;48.780;9.216;2023-05-10T05:37:23;17.30;99.90
1704;DHT22;849;48.780;9.216;2023-05-10T05:39:50;17.30;99.90
1704;DHT22;849;48.780;9.216;2023-05-10T05:42:15;17.10;99.90
1704;DHT22;849;48.780;9.216;2023-05-10T05:44:43;16.90;99.90
1704;DHT22;849;48.780;9.216;2023-05-10T05:47:09;17.00;99.90
1704;DHT22;849;48.780;9.216;2023-05-10T05:49:34;17.10;99.90
1704;DHT22;849;48.780;9.216;2023-05-10T05:52:04;17.10;99.90
1704;DHT22;849;48.780;9.216;2023-05-10T05:54:30;17.10;99.90
1704;DHT22;849;48.780;9.216;2023-05-10T05:56:57;17.00;99.90
1704;DHT22;849;48.780;9.216;2023-05-10T05:59:23;17.10;99.90
1704;DHT22;849;48.780;9.216;2023-05-10T06:01:49;17.30;99.90
1704;DHT22;849;48.780;9.216;2023-05-10T06:04:16;17.30;99.90
1704;DHT22;849;48.780;9.216;2023-05-10T06:06:41;17.40;99.90
1704;DHT22;849;48.780;9.216;2023-05-10T06:09:08;17.40;99.90
1704;DHT22;849;48.780;9.216;2023-05-10T06:11:34;17.60;99.90
1704;DHT22;849;48.780;9.216;2023-05-10T06:14:00;17.60;99.90
1704;DHT22;849;48.780;9.216;2023-05-10T06:16:26;17.60;99.90
1704;DHT22;849;48.780;9.216;2023-05-10T06:18:51;17.50;99.90
1704;DHT22;849;48.780;9.216;2023-05-10T06:21:17;17.50;99.90
1704;DHT22;849;48.780;9.216;2023-05-10T06:23:43;17.50;99.90
1704;DHT22;849;48.780;9.216;2023-05-10T06:26:09;17.50;99.90
1704;DHT22;849;48.780;9.216;2023-05-10T06:28:35;17.00;99.90
1704;DHT22;849;48.780;9.216;2023-05-10T06:31:03;16.90;99.90
1704;DHT22;849;48.780;9.216;2023-05-10T06:33:29;17.00;99.90
1704;DHT22;849;48.780;9.216;2023-05-10T06:35:54;17.10;99.90
1704;DHT22;849;48.780;9.216;2023-05-10T06:38:20;17.20;99.90
1704;DHT22;849;48.780;9.216;2023-05-10T06:40:46;17.40;99.90
1704;DHT22;849;48.780;9.216;2023-05-10T06:43:12;17.20;99.90
1704;DHT22;849;48.780;9.216;2023-05-10T06:45:37;17.20;99.90
1704;DHT22;849;48.780;9.216;2023-05-10T06:48:03;17.40;99.90
1704;DHT22;849;48.780;9.216;2023-05-10T06:50:29;17.50;99.90
1704;DHT22;849;48.780;9.216;2023-05-10T06:52:54;17.40;99.90
1704;DHT22;849;48.780;9.216;2023-05-10T06:55:21;17.40;99.90
1704;DHT22;849;48.780;9.216;2023-05-10T06:57:46;17.40;99.90
1704;DHT22;849;48.780;9.216;2023-05-10T07:00:13;17.30;99.90
1704;DHT22;849;48.780;9.216;2023-05-10T07:02:39;17.30;99.90
1704;DHT22;849;48.780;9.216;2023-05-10T07:05:05;17.20;99.90
1704;DHT22;849;48.780;9.216;2023-05-10T07:07:31;17.20;99.90
1704;DHT22;849;48.780;9.216;2023-05-10T07:09:57;17.30;99.90
1704;DHT22;849;48.780;9.216;2023-05-10T07:12:23;17.20;99.90
1704;DHT22;849;48.780;9.216;2023-05-10T07:14:49;17.00;99.90
1704;DHT22;849;48.780;9.216;2023-05-10T07:17:15;17.10;99.90
1704;DHT22;849;48.780;9.216;2023-05-10T07:19:40;17.10;99.90
1704;DHT22;849;48.780;9.216;2023-05-10T07:22:06;17.20;99.90
1704;DHT22;849;48.780;9.216;2023-05-10T07:24:32;17.30;99.90
1704;DHT22;849;48.780;9.216;2023-05-10T07:26:58;17.40;99.90
1704;DHT22;849;48.780;9.216;2023-05-10T07:29:24;17.60;99.90
1704;DHT22;849;48.780;9.216;2023-05-10T07:31:50;17.60;99.90
1704;DHT22;849;48.780;9.216;2023-05-10T07:34:15;17.60;99.90
1704;DHT22;849;48.780;9.216;2023-05-10T07:36:41;17.70;99.90
1704;DHT22;849;48.780;9.216;2023-05-10T07:39:07;17.50;99.90
1704;DHT22;849;48.780;9.216;2023-05-10T07:41:33;17.40;99.90
1704;DHT22;849;48.780;9.216;2023-05-10T07:43:58;17.40;99.90
1704;DHT22;849;48.780;9.216;2023-05-10T07:46:24;17.30;99.90
1704;DHT22;849;48.780;9.216;2023-05-10T07:48:50;17.40;99.90
1704;DHT22;849;48.780;9.216;2023-05-10T07:51:15;17.60;99.90
1704;DHT22;849;48.780;9.216;2023-05-10T07:53:41;17.90;99.90
1704;DHT22;849;48.780;9.216;2023-05-10T07:56:25;17.80;99.90
1704;DHT22;849;48.780;9.216;2023-05-10T07:58:55;17.70;99.90
1704;DHT22;849;48.780;9.216;2023-05-10T08:01:22;17.30;99.90
1704;DHT22;849;48.780;9.216;2023-05-10T08:03:48;17.00;99.90
1704;DHT22;849;48.780;9.216;2023-05-10T08:06:15;17.20;99.90
1704;DHT22;849;48.780;9.216;2023-05-10T08:08:41;17.00;99.90
1704;DHT22;849;48.780;9.216;2023-05-10T08:11:06;17.10;99.90
1704;DHT22;849;48.780;9.216;2023-05-10T08:13:32;17.20;99.90
1704;DHT22;849;48.780;9.216;2023-05-10T08:15:58;17.10;99.90
1704;DHT22;849;48.780;9.216;2023-05-10T08:18:23;17.20;99.90
1704;DHT22;849;48.780;9.216;2023-05-10T08:20:49;17.40;99.90
1704;DHT22;849;48.780;9.216;2023-05-10T08:23:14;17.60;99.90
1704;DHT22;849;48.780;9.216;2023-05-10T08:25:40;17.50;99.90
1704;DHT22;849;48.780;9.216;2023-05-10T08:28:06;17.20;99.90
1704;DHT22;849;48.780;9.216;2023-05-10T08:30:32;17.00;99.90
1704;DHT22;849;48.780;9.216;2023-05-10T08:32:57;17.30;99.90
1704;DHT22;849;48.780;9.216;2023-05-10T08:35:23;17.20;99.90
1704;DHT22;849;48.780;9.216;2023-05-10T08:37:50;17.40;99.90
1704;DHT22;849;48.780;9.216;2023-05-10T08:40:19;17.10;99.90
1704;DHT22;849;48.780;9.216;2023-05-10T08:43:06;17.10;99.90
1704;DHT22;849;48.780;9.216;2023-05-10T08:45:33;17.40;99.90
1704;DHT22;849;48.780;9.216;2023-05-10T08:48:02;17.10;99.90
1704;DHT22;849;48.780;9.216;2023-05-10T08:50:27;17.00;99.90
1704;DHT22;849;48.780;9.216;2023-05-10T08:52:59;16.80;99.90
1704;DHT22;849;48.780;9.216;2023-05-10T08:55:25;17.00;99.90
1704;DHT22;849;48.780;9.216;2023-05-10T08:57:51;17.20;99.90
1704;DHT22;849;48.780;9.216;2023-05-10T09:00:18;17.40;99.90
1704;DHT22;849;48.780;9.216;2023-05-10T09:02:45;17.40;99.90
1704;DHT22;849;48.780;9.216;2023-05-10T09:05:13;17.00;99.90
1704;DHT22;849;48.780;9.216;2023-05-10T09:07:41;17.00;99.90
1704;DHT22;849;48.780;9.216;2023-05-10T09:10:08;17.30;99.90
1704;DHT22;849;48.780;9.216;2023-05-10T09:12:35;17.30;99.90
1704;DHT22;849;48.780;9.216;2023-05-10T09:15:02;17.20;99.90
1704;DHT22;849;48.780;9.216;2023-05-10T09:17:29;17.10;99.90
1704;DHT22;849;48.780;9.216;2023-05-10T09:20:03;17.10;99.90
1704;DHT22;849;48.780;9.216;2023-05-10T09:22:30;16.90;99.90
1704;DHT22;849;48.780;9.216;2023-05-10T09:25:16;17.00;99.90
1704;DHT22;849;48.780;9.216;2023-05-10T09:27:44;17.30;99.90
1704;DHT22;849;48.780;9.216;2023-05-10T09:30:27;17.10;99.90
1704;DHT22;849;48.780;9.216;2023-05-10T09:32:54;16.80;99.90
1704;DHT22;849;48.780;9.216;2023-05-10T09:35:23;16.90;99.90
1704;DHT22;849;48.780;9.216;2023-05-10T09:37:50;17.10;99.90
1704;DHT22;849;48.780;9.216;2023-05-10T09:40:22;17.20;99.90
1704;DHT22;849;48.780;9.216;2023-05-10T09:43:06;17.20;99.90
1704;DHT22;849;48.780;9.216;2023-05-10T09:45:34;17.40;99.90
1704;DHT22;849;48.780;9.216;2023-05-10T09:48:01;17.80;99.90
1704;DHT22;849;48.780;9.216;2023-05-10T09:50:28;18.00;99.90
1704;DHT22;849;48.780;9.216;2023-05-10T09:53:01;18.10;99.90
1704;DHT22;849;48.780;9.216;2023-05-10T09:55:45;18.00;99.90
1704;DHT22;849;48.780;9.216;2023-05-10T09:58:12;18.20;99.90
1704;DHT22;849;48.780;9.216;2023-05-10T10:00:43;17.90;99.90
1704;DHT22;849;48.780;9.216;2023-05-10T10:03:14;18.10;99.90
1704;DHT22;849;48.780;9.216;2023-05-10T10:05:41;18.30;99.90
1704;DHT22;849;48.780;9.216;2023-05-10T10:08:08;18.10;99.90
1704;DHT22;849;48.780;9.216;2023-05-10T10:10:34;18.00;99.90
1704;DHT22;849;48.780;9.216;2023-05-10T10:13:00;18.00;99.90
1704;DHT22;849;48.780;9.216;2023-05-10T10:15:26;18.00;99.90
1704;DHT22;849;48.780;9.216;2023-05-10T10:17:52;17.90;99.90
1704;DHT22;849;48.780;9.216;2023-05-10T10:20:21;17.80;99.90
1704;DHT22;849;48.780;9.216;2023-05-10T10:22:47;17.50;99.90
1704;DHT22;849;48.780;9.216;2023-05-10T10:25:15;17.30;99.90
1704;DHT22;849;48.780;9.216;2023-05-10T10:30:34;17.50;99.90
1704;DHT22;849;48.780;9.216;2023-05-10T10:35:47;17.60;99.90
1704;DHT22;849;48.780;9.216;2023-05-10T10:38:13;17.40;99.90
1704;DHT22;849;48.780;9.216;2023-05-10T10:40:39;17.30;99.90
1704;DHT22;849;48.780;9.216;2023-05-10T10:43:28;17.30;99.90
1704;DHT22;849;48.780;9.216;2023-05-10T10:46:14;17.20;99.90
1704;DHT22;849;48.780;9.216;2023-05-10T10:49:09;17.30;99.90
1704;DHT22;849;48.780;9.216;2023-05-10T10:51:39;17.60;99.90
1704;DHT22;849;48.780;9.216;2023-05-10T10:54:11;17.80;99.90
1704;DHT22;849;48.780;9.216;2023-05-10T10:56:37;17.90;99.90
1704;DHT22;849;48.780;9.216;2023-05-10T10:59:03;17.60;99.90
1704;DHT22;849;48.780;9.216;2023-05-10T11:01:41;17.70;99.90
1704;DHT22;849;48.780;9.216;2023-05-10T11:06:35;17.10;99.90
1704;DHT22;849;48.780;9.216;2023-05-10T11:09:09;16.90;99.90
1704;DHT22;849;48.780;9.216;2023-05-10T11:11:55;17.10;99.90
1704;DHT22;849;48.780;9.216;2023-05-10T11:14:21;17.20;99.90
1704;DHT22;849;48.780;9.216;2023-05-10T11:16:50;17.20;99.90
1704;DHT22;849;48.780;9.216;2023-05-10T11:19:17;16.80;99.90
1704;DHT22;849;48.780;9.216;2023-05-10T11:22:29;16.70;99.90
1704;DHT22;849;48.780;9.216;2023-05-10T11:24:36;16.80;99.90
1704;DHT22;849;48.780;9.216;2023-05-10T11:27:01;16.80;99.90
1704;DHT22;849;48.780;9.216;2023-05-10T11:29:27;16.90;99.90
1704;DHT22;849;48.780;9.216;2023-05-10T11:31:57;17.10;99.90
1704;DHT22;849;48.780;9.216;2023-05-10T11:34:24;17.30;99.90
1704;DHT22;849;48.780;9.216;2023-05-10T11:36:52;17.50;99.90
1704;DHT22;849;48.780;9.216;2023-05-10T11:39:19;17.30;99.90
1704;DHT22;849;48.780;9.216;2023-05-10T11:41:48;17.30;99.90
1704;DHT22;849;48.780;9.216;2023-05-10T11:44:14;17.10;99.90
1704;DHT22;849;48.780;9.216;2023-05-10T11:46:40;17.50;99.90
1704;DHT22;849;48.780;9.216;2023-05-10T11:49:07;17.70;99.90
1704;DHT22;849;48.780;9.216;2023-05-10T11:51:36;17.50;99.90
1704;DHT22;849;48.780;9.216;2023-05-10T11:54:06;17.20;99.90
1704;DHT22;849;48.780;9.216;2023-05-10T11:56:33;17.10;99.90
1704;DHT22;849;48.780;9.216;2023-05-10T11:59:00;17.20;99.90
1704;DHT22;849;48.780;9.216;2023-05-10T12:01:27;17.20;99.90
1704;DHT22;849;48.780;9.216;2023-05-10T12:03:55;17.10;99.90
1704;DHT22;849;48.780;9.216;2023-05-10T12:06:27;17.20;99.90
1704;DHT22;849;48.780;9.216;2023-05-10T12:08:54;17.30;99.90
1704;DHT22;849;48.780;9.216;2023-05-10T12:11:20;17.50;99.90
1704;DHT22;849;48.780;9.216;2023-05-10T12:13:47;17.40;99.90
1704;DHT22;849;48.780;9.216;2023-05-10T12:16:24;17.50;99.90
1704;DHT22;849;48.780;9.216;2023-05-10T12:18:55;17.70;99.90
1704;DHT22;849;48.780;9.216;2023-05-10T12:21:21;17.40;99.90
1704;DHT22;849;48.780;9.216;2023-05-10T12:23:52;17.10;99.90
1704;DHT22;849;48.780;9.216;2023-05-10T12:26:22;17.20;99.90
1704;DHT22;849;48.780;9.216;2023-05-10T12:28:47;17.40;99.90
1704;DHT22;849;48.780;9.216;2023-05-10T12:31:13;17.20;99.90
1704;DHT22;849;48.780;9.216;2023-05-10T12:33:40;17.50;99.90
1704;DHT22;849;48.780;9.216;2023-05-10T12:36:10;17.50;99.90
1704;DHT22;849;48.780;9.216;2023-05-10T12:38:40;17.60;99.90
1704;DHT22;849;48.780;9.216;2023-05-10T12:41:10;17.60;99.90
1704;DHT22;849;48.780;9.216;2023-05-10T12:43:37;17.60;99.90
1704;DHT22;849;48.780;9.216;2023-05-10T12:46:11;17.60;99.90
1704;DHT22;849;48.780;9.216;2023-05-10T12:48:37;17.80;99.90
1704;DHT22;849;48.780;9.216;2023-05-10T12:51:04;18.10;99.90
1704;DHT22;849;48.780;9.216;2023-05-10T12:53:30;18.10;99.90
1704;DHT22;849;48.780;9.216;2023-05-10T12:55:56;18.30;99.90
1704;DHT22;849;48.780;9.216;2023-05-10T12:58:22;18.00;99.90
1704;DHT22;849;48.780;9.216;2023-05-10T13:00:48;17.80;99.90
1704;DHT22;849;48.780;9.216;2023-05-10T13:03:14;17.90;99.90
1704;DHT22;849;48.780;9.216;2023-05-10T13:05:41;17.90;99.90
1704;DHT22;849;48.780;9.216;2023-05-10T13:08:06;17.70;99.90
1704;DHT22;849;48.780;9.216;2023-05-10T13:10:32;17.60;99.90
1704;DHT22;849;48.780;9.216;2023-05-10T13:12:58;17.60;99.90
1704;DHT22;849;48.780;9.216;2023-05-10T13:15:24;17.80;99.90
1704;DHT22;849;48.780;9.216;2023-05-10T13:17:50;17.70;99.90
1704;DHT22;849;48.780;9.216;2023-05-10T13:20:16;17.80;99.90
1704;DHT22;849;48.780;9.216;2023-05-10T13:22:43;17.90;99.90
1704;DHT22;849;48.780;9.216;2023-05-10T13:25:09;18.00;99.90
1704;DHT22;849;48.780;9.216;2023-05-10T13:27:34;18.10;99.90
1704;DHT22;849;48.780;9.216;2023-05-10T13:30:00;18.00;99.90
1704;DHT22;849;48.780;9.216;2023-05-10T13:32:26;17.90;99.90
1704;DHT22;849;48.780;9.216;2023-05-10T13:34:52;18.10;99.90
1704;DHT22;849;48.780;9.216;2023-05-10T13:37:18;18.20;99.90
1704;DHT22;849;48.780;9.216;2023-05-10T13:39:43;18.10;99.90
1704;DHT22;849;48.780;9.216;2023-05-10T13:42:09;18.10;99.90
1704;DHT22;849;48.780;9.216;2023-05-10T13:44:35;18.00;99.90
1704;DHT22;849;48.780;9.216;2023-05-10T13:47:01;18.00;99.90
1704;DHT22;849;48.780;9.216;2023-05-10T13:49:27;18.00;99.90
1704;DHT22;849;48.780;9.216;2023-05-10T13:51:52;17.90;99.90
1704;DHT22;849;48.780;9.216;2023-05-10T13:54:18;17.90;99.90
1704;DHT22;849;48.780;9.216;2023-05-10T13:56:45;18.20;99.90
1704;DHT22;849;48.780;9.216;2023-05-10T13:59:12;18.20;99.90
1704;DHT22;849;48.780;9.216;2023-05-10T14:01:42;18.20;99.90
1704;DHT22;849;48.780;9.216;2023-05-10T14:04:08;18.40;99.90
1704;DHT22;849;48.780;9.216;2023-05-10T14:06:36;18.50;99.90
1704;DHT22;849;48.780;9.216;2023-05-10T14:09:02;18.60;99.90
1704;DHT22;849;48.780;9.216;2023-05-10T14:11:28;18.50;98.80
1704;DHT22;849;48.780;9.216;2023-05-10T14:13:54;18.20;98.40
1704;DHT22;849;48.780;9.216;2023-05-10T14:16:20;18.00;99.90
1704;DHT22;849;48.780;9.216;2023-05-10T14:18:46;18.20;99.90
1704;DHT22;849;48.780;9.216;2023-05-10T14:21:12;18.50;99.00
1704;DHT22;849;48.780;9.216;2023-05-10T14:23:38;18.40;96.70
1704;DHT22;849;48.780;9.216;2023-05-10T14:26:04;18.20;94.80
1704;DHT22;849;48.780;9.216;2023-05-10T14:28:29;18.50;95.00
1704;DHT22;849;48.780;9.216;2023-05-10T14:30:55;18.60;94.10
1704;DHT22;849;48.780;9.216;2023-05-10T14:33:21;18.80;96.70
1704;DHT22;849;48.780;9.216;2023-05-10T14:35:47;18.90;94.80
1704;DHT22;849;48.780;9.216;2023-05-10T14:38:13;18.90;93.40
1704;DHT22;849;48.780;9.216;2023-05-10T14:40:39;19.00;92.80
1704;DHT22;849;48.780;9.216;2023-05-10T14:43:04;18.40;92.70
1704;DHT22;849;48.780;9.216;2023-05-10T14:45:30;18.20;92.50
1704;DHT22;849;48.780;9.216;2023-05-10T14:47:57;18.20;93.10
1704;DHT22;849;48.780;9.216;2023-05-10T14:50:22;18.00;92.70
1704;DHT22;849;48.780;9.216;2023-05-10T14:52:48;18.00;93.30
1704;DHT22;849;48.780;9.216;2023-05-10T14:55:14;18.10;94.40
1704;DHT22;849;48.780;9.216;2023-05-10T14:57:40;18.20;93.00
1704;DHT22;849;48.780;9.216;2023-05-10T15:00:06;18.20;93.20
1704;DHT22;849;48.780;9.216;2023-05-10T15:02:32;18.10;93.00
1704;DHT22;849;48.780;9.216;2023-05-10T15:04:58;18.40;94.50
1704;DHT22;849;48.780;9.216;2023-05-10T15:07:24;18.50;93.40
1704;DHT22;849;48.780;9.216;2023-05-10T15:09:52;18.60;93.40
1704;DHT22;849;48.780;9.216;2023-05-10T15:12:19;18.70;91.90
1704;DHT22;849;48.780;9.216;2023-05-10T15:14:45;18.60;91.30
1704;DHT22;849;48.780;9.216;2023-05-10T15:17:10;18.30;92.00
1704;DHT22;849;48.780;9.216;2023-05-10T15:19:36;18.00;92.20
1704;DHT22;849;48.780;9.216;2023-05-10T15:22:03;18.00;93.10
1704;DHT22;849;48.780;9.216;2023-05-10T15:24:29;18.00;93.30
1704;DHT22;849;48.780;9.216;2023-05-10T15:26:55;18.00;93.50
1704;DHT22;849;48.780;9.216;2023-05-10T15:29:20;18.10;93.20
1704;DHT22;849;48.780;9.216;2023-05-10T15:31:49;18.10;92.90
1704;DHT22;849;48.780;9.216;2023-05-10T15:34:16;18.20;93.50
1704;DHT22;849;48.780;9.216;2023-05-10T15:36:42;18.10;93.30
1704;DHT22;849;48.780;9.216;2023-05-10T15:39:08;18.10;93.20
1704;DHT22;849;48.780;9.216;2023-05-10T15:41:35;17.80;93.90
1704;DHT22;849;48.780;9.216;2023-05-10T15:44:01;17.90;94.00
1704;DHT22;849;48.780;9.216;2023-05-10T15:46:30;18.00;93.20
1704;DHT22;849;48.780;9.216;2023-05-10T15:48:57;18.10;93.50
1704;DHT22;849;48.780;9.216;2023-05-10T15:51:23;18.40;93.30
1704;DHT22;849;48.780;9.216;2023-05-10T15:53:49;18.50;93.90
1704;DHT22;849;48.780;9.216;2023-05-10T15:56:15;18.70;93.70
1704;DHT22;849;48.780;9.216;2023-05-10T15:58:40;18.70;94.40
1704;DHT22;849;48.780;9.216;2023-05-10T16:01:06;18.90;94.90
1704;DHT22;849;48.780;9.216;2023-05-10T16:03:33;18.90;92.20
1704;DHT22;849;48.780;9.216;2023-05-10T16:05:59;18.50;90.40
1704;DHT22;849;48.780;9.216;2023-05-10T16:08:26;18.40;90.00
1704;DHT22;849;48.780;9.216;2023-05-10T16:10:52;18.20;90.20
1704;DHT22;849;48.780;9.216;2023-05-10T16:13:18;18.10;90.40
1704;DHT22;849;48.780;9.216;2023-05-10T16:15:44;18.30;92.80
1704;DHT22;849;48.780;9.216;2023-05-10T16:18:10;18.60;91.70
1704;DHT22;849;48.780;9.216;2023-05-10T16:20:35;18.80;90.40
1704;DHT22;849;48.780;9.216;2023-05-10T16:23:03;18.50;89.40
1704;DHT22;849;48.780;9.216;2023-05-10T16:25:29;18.60;91.40
1704;DHT22;849;48.780;9.216;2023-05-10T16:27:57;18.60;90.00
1704;DHT22;849;48.780;9.216;2023-05-10T16:30:23;18.60;91.20
1704;DHT22;849;48.780;9.216;2023-05-10T16:32:52;18.50;87.50
1704;DHT22;849;48.780;9.216;2023-05-10T16:35:17;18.30;89.50
1704;DHT22;849;48.780;9.216;2023-05-10T16:37:43;18.50;90.00